<?xml version="1.0" encoding="utf-8"?>
<gpx xmlns:xsi="http://www.w3.org/2001/XMLSchema-instance" xmlns:xsd="http://www.w3.org/2001/XMLSchema" version="1.1" creator="Shapelink.com" xmlns="http://www.topografix.com/GPX/1/1" xmlns:gpxtpx="http://www.garmin.com/xmlschemas/TrackPointExtension/v1">
  <metadata>
    <name>Gåing 2.01 km, 2012-08-19</name>
    <desc></desc>
    <author><name>Mikael Blom</name></author> 
    <time>2012-08-19T20:51:07Z</time>
  </metadata>
  <trk>
    <name>Gåing 2.01 km, 2012-08-19</name>
    <trkseg>
      <trkpt lat="59.9781041" lon="17.7393138">
        <ele>33.7834</ele>
        <time>2012-08-19T20:51:07Z</time>
      </trkpt>
      <trkpt lat="59.9781012" lon="17.7393254">
        <ele>33.7834</ele>
        <time>2012-08-19T20:51:08Z</time>
      </trkpt>
      <trkpt lat="59.9778924" lon="17.7391107">
        <ele>34.7449</ele>
        <time>2012-08-19T20:51:13Z</time>
      </trkpt>
      <trkpt lat="59.9775109" lon="17.738955">
        <ele>33.3029</ele>
        <time>2012-08-19T20:51:25Z</time>
      </trkpt>
      <trkpt lat="59.9773587" lon="17.7390782">
        <ele>33.7834</ele>
        <time>2012-08-19T20:51:31Z</time>
      </trkpt>
      <trkpt lat="59.9772751" lon="17.7392196">
        <ele>35.7061</ele>
        <time>2012-08-19T20:51:35Z</time>
      </trkpt>
      <trkpt lat="59.977237" lon="17.7392812">
        <ele>35.7061</ele>
        <time>2012-08-19T20:51:37Z</time>
      </trkpt>
      <trkpt lat="59.977138" lon="17.7392906">
        <ele>32.3416</ele>
        <time>2012-08-19T20:51:42Z</time>
      </trkpt>
      <trkpt lat="59.9770044" lon="17.7394204">
        <ele>31.8607</ele>
        <time>2012-08-19T20:51:48Z</time>
      </trkpt>
      <trkpt lat="59.9768939" lon="17.7394693">
        <ele>28.9769</ele>
        <time>2012-08-19T20:51:53Z</time>
      </trkpt>
      <trkpt lat="59.9768795" lon="17.7394704">
        <ele>28.0155</ele>
        <time>2012-08-19T20:51:54Z</time>
      </trkpt>
      <trkpt lat="59.9768567" lon="17.7394776">
        <ele>27.0543</ele>
        <time>2012-08-19T20:51:57Z</time>
      </trkpt>
      <trkpt lat="59.97682" lon="17.7394755">
        <ele>26.5736</ele>
        <time>2012-08-19T20:51:59Z</time>
      </trkpt>
      <trkpt lat="59.9767157" lon="17.7394406">
        <ele>26.0929</ele>
        <time>2012-08-19T20:52:05Z</time>
      </trkpt>
      <trkpt lat="59.9766328" lon="17.7394564">
        <ele>26.5736</ele>
        <time>2012-08-19T20:52:09Z</time>
      </trkpt>
      <trkpt lat="59.976546" lon="17.7395632">
        <ele>26.5736</ele>
        <time>2012-08-19T20:52:16Z</time>
      </trkpt>
      <trkpt lat="59.9765315" lon="17.7396007">
        <ele>26.5736</ele>
        <time>2012-08-19T20:52:18Z</time>
      </trkpt>
      <trkpt lat="59.9764416" lon="17.7396708">
        <ele>27.5349</ele>
        <time>2012-08-19T20:52:24Z</time>
      </trkpt>
      <trkpt lat="59.9764194" lon="17.7396681">
        <ele>27.5349</ele>
        <time>2012-08-19T20:52:25Z</time>
      </trkpt>
      <trkpt lat="59.9763816" lon="17.7396795">
        <ele>28.4962</ele>
        <time>2012-08-19T20:52:27Z</time>
      </trkpt>
      <trkpt lat="59.9763088" lon="17.7396827">
        <ele>29.4575</ele>
        <time>2012-08-19T20:52:31Z</time>
      </trkpt>
      <trkpt lat="59.9762304" lon="17.7397598">
        <ele>28.0155</ele>
        <time>2012-08-19T20:52:39Z</time>
      </trkpt>
      <trkpt lat="59.9761615" lon="17.7397526">
        <ele>27.0543</ele>
        <time>2012-08-19T20:52:45Z</time>
      </trkpt>
      <trkpt lat="59.9760801" lon="17.7396424">
        <ele>26.0929</ele>
        <time>2012-08-19T20:52:52Z</time>
      </trkpt>
      <trkpt lat="59.9760146" lon="17.7395316">
        <ele>26.0929</ele>
        <time>2012-08-19T20:52:58Z</time>
      </trkpt>
      <trkpt lat="59.9759183" lon="17.7393731">
        <ele>26.5736</ele>
        <time>2012-08-19T20:53:06Z</time>
      </trkpt>
      <trkpt lat="59.9758627" lon="17.73927">
        <ele>27.0543</ele>
        <time>2012-08-19T20:53:11Z</time>
      </trkpt>
      <trkpt lat="59.9757845" lon="17.7391217">
        <ele>26.5736</ele>
        <time>2012-08-19T20:53:18Z</time>
      </trkpt>
      <trkpt lat="59.9757177" lon="17.7390186">
        <ele>27.5349</ele>
        <time>2012-08-19T20:53:24Z</time>
      </trkpt>
      <trkpt lat="59.975639" lon="17.7388876">
        <ele>28.4962</ele>
        <time>2012-08-19T20:53:31Z</time>
      </trkpt>
      <trkpt lat="59.9755649" lon="17.7387555">
        <ele>30.4188</ele>
        <time>2012-08-19T20:53:38Z</time>
      </trkpt>
      <trkpt lat="59.9754697" lon="17.7386014">
        <ele>32.3416</ele>
        <time>2012-08-19T20:53:46Z</time>
      </trkpt>
      <trkpt lat="59.9753769" lon="17.73845">
        <ele>33.3029</ele>
        <time>2012-08-19T20:53:54Z</time>
      </trkpt>
      <trkpt lat="59.9752505" lon="17.7382366">
        <ele>33.7834</ele>
        <time>2012-08-19T20:54:05Z</time>
      </trkpt>
      <trkpt lat="59.9751379" lon="17.7380401">
        <ele>34.2642</ele>
        <time>2012-08-19T20:54:15Z</time>
      </trkpt>
      <trkpt lat="59.9750382" lon="17.7378681">
        <ele>36.1868</ele>
        <time>2012-08-19T20:54:24Z</time>
      </trkpt>
      <trkpt lat="59.974922" lon="17.7376677">
        <ele>36.1868</ele>
        <time>2012-08-19T20:54:34Z</time>
      </trkpt>
      <trkpt lat="59.9748639" lon="17.7375681">
        <ele>36.6675</ele>
        <time>2012-08-19T20:54:39Z</time>
      </trkpt>
      <trkpt lat="59.9747762" lon="17.7374074">
        <ele>35.7061</ele>
        <time>2012-08-19T20:54:47Z</time>
      </trkpt>
      <trkpt lat="59.9746947" lon="17.7372305">
        <ele>35.2255</ele>
        <time>2012-08-19T20:54:55Z</time>
      </trkpt>
      <trkpt lat="59.9746738" lon="17.7371864">
        <ele>35.2255</ele>
        <time>2012-08-19T20:54:57Z</time>
      </trkpt>
      <trkpt lat="59.9746372" lon="17.7370647">
        <ele>35.2255</ele>
        <time>2012-08-19T20:55:02Z</time>
      </trkpt>
      <trkpt lat="59.9746189" lon="17.737012">
        <ele>35.2255</ele>
        <time>2012-08-19T20:55:04Z</time>
      </trkpt>
      <trkpt lat="59.9745463" lon="17.7367727">
        <ele>36.1868</ele>
        <time>2012-08-19T20:55:13Z</time>
      </trkpt>
      <trkpt lat="59.9744844" lon="17.7365515">
        <ele>35.7061</ele>
        <time>2012-08-19T20:55:21Z</time>
      </trkpt>
      <trkpt lat="59.9744473" lon="17.7363975">
        <ele>35.7061</ele>
        <time>2012-08-19T20:55:27Z</time>
      </trkpt>
      <trkpt lat="59.9744069" lon="17.7361897">
        <ele>34.7449</ele>
        <time>2012-08-19T20:55:35Z</time>
      </trkpt>
      <trkpt lat="59.9743552" lon="17.7359073">
        <ele>34.7449</ele>
        <time>2012-08-19T20:55:45Z</time>
      </trkpt>
      <trkpt lat="59.9743165" lon="17.735639">
        <ele>34.2642</ele>
        <time>2012-08-19T20:55:54Z</time>
      </trkpt>
      <trkpt lat="59.9742819" lon="17.7354181">
        <ele>32.8223</ele>
        <time>2012-08-19T20:56:01Z</time>
      </trkpt>
      <trkpt lat="59.9742621" lon="17.7351785">
        <ele>32.3416</ele>
        <time>2012-08-19T20:56:09Z</time>
      </trkpt>
      <trkpt lat="59.9742403" lon="17.7349563">
        <ele>30.8995</ele>
        <time>2012-08-19T20:56:16Z</time>
      </trkpt>
      <trkpt lat="59.9742266" lon="17.7347201">
        <ele>30.4188</ele>
        <time>2012-08-19T20:56:24Z</time>
      </trkpt>
      <trkpt lat="59.9742404" lon="17.7345128">
        <ele>29.4575</ele>
        <time>2012-08-19T20:56:31Z</time>
      </trkpt>
      <trkpt lat="59.9742559" lon="17.7342346">
        <ele>27.5349</ele>
        <time>2012-08-19T20:56:40Z</time>
      </trkpt>
      <trkpt lat="59.9742762" lon="17.7339725">
        <ele>26.0929</ele>
        <time>2012-08-19T20:56:49Z</time>
      </trkpt>
      <trkpt lat="59.9742922" lon="17.7337096">
        <ele>25.6123</ele>
        <time>2012-08-19T20:56:58Z</time>
      </trkpt>
      <trkpt lat="59.9742997" lon="17.7336205">
        <ele>25.6123</ele>
        <time>2012-08-19T20:57:01Z</time>
      </trkpt>
      <trkpt lat="59.9743081" lon="17.7333151">
        <ele>25.6123</ele>
        <time>2012-08-19T20:57:11Z</time>
      </trkpt>
      <trkpt lat="59.9743144" lon="17.7330227">
        <ele>26.5736</ele>
        <time>2012-08-19T20:57:21Z</time>
      </trkpt>
      <trkpt lat="59.9743144" lon="17.7327677">
        <ele>27.0543</ele>
        <time>2012-08-19T20:57:29Z</time>
      </trkpt>
      <trkpt lat="59.974318" lon="17.7324084">
        <ele>26.5736</ele>
        <time>2012-08-19T20:57:41Z</time>
      </trkpt>
      <trkpt lat="59.9743139" lon="17.7321224">
        <ele>25.6123</ele>
        <time>2012-08-19T20:57:51Z</time>
      </trkpt>
      <trkpt lat="59.9743178" lon="17.7318407">
        <ele>24.1703</ele>
        <time>2012-08-19T20:58:01Z</time>
      </trkpt>
      <trkpt lat="59.9743211" lon="17.7316615">
        <ele>23.209</ele>
        <time>2012-08-19T20:58:07Z</time>
      </trkpt>
      <trkpt lat="59.9743258" lon="17.7313345">
        <ele>23.209</ele>
        <time>2012-08-19T20:58:17Z</time>
      </trkpt>
      <trkpt lat="59.9743341" lon="17.7310343">
        <ele>23.6896</ele>
        <time>2012-08-19T20:58:26Z</time>
      </trkpt>
      <trkpt lat="59.9743475" lon="17.7307544">
        <ele>25.1317</ele>
        <time>2012-08-19T20:58:35Z</time>
      </trkpt>
      <trkpt lat="59.9743615" lon="17.7305316">
        <ele>26.5736</ele>
        <time>2012-08-19T20:58:43Z</time>
      </trkpt>
      <trkpt lat="59.9743935" lon="17.7302638">
        <ele>27.5349</ele>
        <time>2012-08-19T20:58:52Z</time>
      </trkpt>
      <trkpt lat="59.9744088" lon="17.7300571">
        <ele>28.0155</ele>
        <time>2012-08-19T20:58:59Z</time>
      </trkpt>
      <trkpt lat="59.9744264" lon="17.729802">
        <ele>27.0543</ele>
        <time>2012-08-19T20:59:07Z</time>
      </trkpt>
      <trkpt lat="59.9744318" lon="17.729582">
        <ele>25.6123</ele>
        <time>2012-08-19T20:59:14Z</time>
      </trkpt>
      <trkpt lat="59.9744434" lon="17.7293925">
        <ele>24.651</ele>
        <time>2012-08-19T20:59:20Z</time>
      </trkpt>
      <trkpt lat="59.9744421" lon="17.7291685">
        <ele>24.651</ele>
        <time>2012-08-19T20:59:27Z</time>
      </trkpt>
      <trkpt lat="59.9744356" lon="17.7289895">
        <ele>23.6896</ele>
        <time>2012-08-19T20:59:33Z</time>
      </trkpt>
      <trkpt lat="59.9744331" lon="17.7287401">
        <ele>23.6896</ele>
        <time>2012-08-19T20:59:41Z</time>
      </trkpt>
      <trkpt lat="59.9744263" lon="17.728527">
        <ele>23.209</ele>
        <time>2012-08-19T20:59:48Z</time>
      </trkpt>
      <trkpt lat="59.9744269" lon="17.7282875">
        <ele>23.209</ele>
        <time>2012-08-19T20:59:56Z</time>
      </trkpt>
      <trkpt lat="59.974431" lon="17.7279193">
        <ele>21.2864</ele>
        <time>2012-08-19T21:00:08Z</time>
      </trkpt>
      <trkpt lat="59.9744315" lon="17.727753">
        <ele>21.2864</ele>
        <time>2012-08-19T21:00:14Z</time>
      </trkpt>
      <trkpt lat="59.9744281" lon="17.7274898">
        <ele>20.325</ele>
        <time>2012-08-19T21:00:23Z</time>
      </trkpt>
      <trkpt lat="59.974432" lon="17.7272591">
        <ele>18.4023</ele>
        <time>2012-08-19T21:00:31Z</time>
      </trkpt>
      <trkpt lat="59.9744308" lon="17.7270045">
        <ele>17.4412</ele>
        <time>2012-08-19T21:00:39Z</time>
      </trkpt>
      <trkpt lat="59.9744226" lon="17.7267775">
        <ele>15.999</ele>
        <time>2012-08-19T21:00:46Z</time>
      </trkpt>
      <trkpt lat="59.974418" lon="17.7266283">
        <ele>14.557</ele>
        <time>2012-08-19T21:00:51Z</time>
      </trkpt>
      <trkpt lat="59.9744199" lon="17.7263984">
        <ele>12.6344</ele>
        <time>2012-08-19T21:00:59Z</time>
      </trkpt>
      <trkpt lat="59.9744231" lon="17.7262293">
        <ele>12.6344</ele>
        <time>2012-08-19T21:01:05Z</time>
      </trkpt>
      <trkpt lat="59.9744048" lon="17.7259518">
        <ele>13.5958</ele>
        <time>2012-08-19T21:01:14Z</time>
      </trkpt>
      <trkpt lat="59.9743797" lon="17.7256789">
        <ele>15.0377</ele>
        <time>2012-08-19T21:01:23Z</time>
      </trkpt>
      <trkpt lat="59.9743517" lon="17.7254633">
        <ele>16.4797</ele>
        <time>2012-08-19T21:01:30Z</time>
      </trkpt>
      <trkpt lat="59.9743154" lon="17.725187">
        <ele>18.4023</ele>
        <time>2012-08-19T21:01:39Z</time>
      </trkpt>
      <trkpt lat="59.97428" lon="17.7249459">
        <ele>19.3638</ele>
        <time>2012-08-19T21:01:47Z</time>
      </trkpt>
      <trkpt lat="59.9742423" lon="17.7247203">
        <ele>19.8444</ele>
        <time>2012-08-19T21:01:55Z</time>
      </trkpt>
      <trkpt lat="59.9742055" lon="17.7245133">
        <ele>20.8057</ele>
        <time>2012-08-19T21:02:02Z</time>
      </trkpt>
      <trkpt lat="59.9741771" lon="17.7243046">
        <ele>21.2864</ele>
        <time>2012-08-19T21:02:09Z</time>
      </trkpt>
      <trkpt lat="59.9741316" lon="17.7240165">
        <ele>21.2864</ele>
        <time>2012-08-19T21:02:19Z</time>
      </trkpt>
      <trkpt lat="59.9740806" lon="17.723701">
        <ele>22.2476</ele>
        <time>2012-08-19T21:02:30Z</time>
      </trkpt>
      <trkpt lat="59.974028" lon="17.7234173">
        <ele>22.7283</ele>
        <time>2012-08-19T21:02:40Z</time>
      </trkpt>
      <trkpt lat="59.9739808" lon="17.7231317">
        <ele>22.7283</ele>
        <time>2012-08-19T21:02:50Z</time>
      </trkpt>
      <trkpt lat="59.9739388" lon="17.7229339">
        <ele>22.2476</ele>
        <time>2012-08-19T21:02:57Z</time>
      </trkpt>
      <trkpt lat="59.9738685" lon="17.7226849">
        <ele>23.209</ele>
        <time>2012-08-19T21:03:06Z</time>
      </trkpt>
      <trkpt lat="59.97377" lon="17.7223717">
        <ele>23.6896</ele>
        <time>2012-08-19T21:03:18Z</time>
      </trkpt>
      <trkpt lat="59.973699" lon="17.7221679">
        <ele>24.1703</ele>
        <time>2012-08-19T21:03:26Z</time>
      </trkpt>
      <trkpt lat="59.9736327" lon="17.7219947">
        <ele>24.1703</ele>
        <time>2012-08-19T21:03:33Z</time>
      </trkpt>
      <trkpt lat="59.9735325" lon="17.7217532">
        <ele>25.1317</ele>
        <time>2012-08-19T21:03:43Z</time>
      </trkpt>
      <trkpt lat="59.9734562" lon="17.7215905">
        <ele>27.0543</ele>
        <time>2012-08-19T21:03:50Z</time>
      </trkpt>
      <trkpt lat="59.9733699" lon="17.721413">
        <ele>27.0543</ele>
        <time>2012-08-19T21:03:58Z</time>
      </trkpt>
      <trkpt lat="59.9732893" lon="17.7212655">
        <ele>28.0155</ele>
        <time>2012-08-19T21:04:05Z</time>
      </trkpt>
      <trkpt lat="59.9732217" lon="17.7211447">
        <ele>28.4962</ele>
        <time>2012-08-19T21:04:11Z</time>
      </trkpt>
      <trkpt lat="59.9731389" lon="17.7209963">
        <ele>27.5349</ele>
        <time>2012-08-19T21:04:17Z</time>
      </trkpt>
      <trkpt lat="59.9730679" lon="17.7208783">
        <ele>26.0929</ele>
        <time>2012-08-19T21:04:23Z</time>
      </trkpt>
      <trkpt lat="59.973009" lon="17.7208033">
        <ele>25.6123</ele>
        <time>2012-08-19T21:04:28Z</time>
      </trkpt>
      <trkpt lat="59.9728882" lon="17.7206624">
        <ele>26.5736</ele>
        <time>2012-08-19T21:04:37Z</time>
      </trkpt>
      <trkpt lat="59.9727546" lon="17.7205188">
        <ele>28.0155</ele>
        <time>2012-08-19T21:04:47Z</time>
      </trkpt>
      <trkpt lat="59.9726617" lon="17.7204326">
        <ele>29.4575</ele>
        <time>2012-08-19T21:04:54Z</time>
      </trkpt>
      <trkpt lat="59.9726087" lon="17.720375">
        <ele>30.4188</ele>
        <time>2012-08-19T21:04:58Z</time>
      </trkpt>
      <trkpt lat="59.9725532" lon="17.7203174">
        <ele>30.4188</ele>
        <time>2012-08-19T21:05:02Z</time>
      </trkpt>
      <trkpt lat="59.972525" lon="17.7202791">
        <ele>29.9381</ele>
        <time>2012-08-19T21:05:04Z</time>
      </trkpt>
      <trkpt lat="59.9724484" lon="17.7201974">
        <ele>28.4962</ele>
        <time>2012-08-19T21:05:10Z</time>
      </trkpt>
      <trkpt lat="59.9723603" lon="17.7200818">
        <ele>25.6123</ele>
        <time>2012-08-19T21:05:17Z</time>
      </trkpt>
      <trkpt lat="59.9722686" lon="17.7199709">
        <ele>24.1703</ele>
        <time>2012-08-19T21:05:24Z</time>
      </trkpt>
      <trkpt lat="59.9721621" lon="17.7198629">
        <ele>22.7283</ele>
        <time>2012-08-19T21:05:32Z</time>
      </trkpt>
      <trkpt lat="59.9720807" lon="17.7197636">
        <ele>21.2864</ele>
        <time>2012-08-19T21:05:38Z</time>
      </trkpt>
      <trkpt lat="59.971959" lon="17.719649">
        <ele>20.325</ele>
        <time>2012-08-19T21:05:47Z</time>
      </trkpt>
      <trkpt lat="59.9718363" lon="17.7195247">
        <ele>18.8831</ele>
        <time>2012-08-19T21:05:56Z</time>
      </trkpt>
      <trkpt lat="59.9718212" lon="17.719512">
        <ele>18.8831</ele>
        <time>2012-08-19T21:05:57Z</time>
      </trkpt>
      <trkpt lat="59.9717647" lon="17.7194793">
        <ele>19.8444</ele>
        <time>2012-08-19T21:06:01Z</time>
      </trkpt>
      <trkpt lat="59.9716933" lon="17.7194523">
        <ele>21.767</ele>
        <time>2012-08-19T21:06:06Z</time>
      </trkpt>
      <trkpt lat="59.971627" lon="17.7193793">
        <ele>22.2476</ele>
        <time>2012-08-19T21:06:11Z</time>
      </trkpt>
      <trkpt lat="59.9716006" lon="17.7193538">
        <ele>22.2476</ele>
        <time>2012-08-19T21:06:13Z</time>
      </trkpt>
      <trkpt lat="59.9715332" lon="17.7192954">
        <ele>22.2476</ele>
        <time>2012-08-19T21:06:18Z</time>
      </trkpt>
      <trkpt lat="59.97152" lon="17.7192855">
        <ele>22.2476</ele>
        <time>2012-08-19T21:06:19Z</time>
      </trkpt>
      <trkpt lat="59.9714271" lon="17.7192017">
        <ele>21.767</ele>
        <time>2012-08-19T21:06:26Z</time>
      </trkpt>
      <trkpt lat="59.9713156" lon="17.7191096">
        <ele>21.767</ele>
        <time>2012-08-19T21:06:34Z</time>
      </trkpt>
      <trkpt lat="59.9711912" lon="17.718995">
        <ele>21.767</ele>
        <time>2012-08-19T21:06:43Z</time>
      </trkpt>
      <trkpt lat="59.9710775" lon="17.7189088">
        <ele>23.6896</ele>
        <time>2012-08-19T21:06:51Z</time>
      </trkpt>
      <trkpt lat="59.9709679" lon="17.7188109">
        <ele>24.1703</ele>
        <time>2012-08-19T21:06:59Z</time>
      </trkpt>
      <trkpt lat="59.9708684" lon="17.7187504">
        <ele>25.1317</ele>
        <time>2012-08-19T21:07:06Z</time>
      </trkpt>
      <trkpt lat="59.9707148" lon="17.7186366">
        <ele>27.0543</ele>
        <time>2012-08-19T21:07:16Z</time>
      </trkpt>
      <trkpt lat="59.9706074" lon="17.7185379">
        <ele>28.0155</ele>
        <time>2012-08-19T21:07:24Z</time>
      </trkpt>
      <trkpt lat="59.9705094" lon="17.7184543">
        <ele>29.4575</ele>
        <time>2012-08-19T21:07:31Z</time>
      </trkpt>
      <trkpt lat="59.9704159" lon="17.7183624">
        <ele>29.9381</ele>
        <time>2012-08-19T21:07:38Z</time>
      </trkpt>
      <trkpt lat="59.9702853" lon="17.7182541">
        <ele>30.8995</ele>
        <time>2012-08-19T21:07:47Z</time>
      </trkpt>
      <trkpt lat="59.9701577" lon="17.7181543">
        <ele>31.3801</ele>
        <time>2012-08-19T21:07:56Z</time>
      </trkpt>
      <trkpt lat="59.9700362" lon="17.7180513">
        <ele>33.3029</ele>
        <time>2012-08-19T21:08:05Z</time>
      </trkpt>
      <trkpt lat="59.9699539" lon="17.7179704">
        <ele>32.3416</ele>
        <time>2012-08-19T21:08:11Z</time>
      </trkpt>
      <trkpt lat="59.9698408" lon="17.7178637">
        <ele>31.8607</ele>
        <time>2012-08-19T21:08:19Z</time>
      </trkpt>
      <trkpt lat="59.9697828" lon="17.7178154">
        <ele>31.8607</ele>
        <time>2012-08-19T21:08:23Z</time>
      </trkpt>
      <trkpt lat="59.9696604" lon="17.7177155">
        <ele>30.8995</ele>
        <time>2012-08-19T21:08:32Z</time>
      </trkpt>
      <trkpt lat="59.9695491" lon="17.7176405">
        <ele>30.4188</ele>
        <time>2012-08-19T21:08:40Z</time>
      </trkpt>
      <trkpt lat="59.9693872" lon="17.7175381">
        <ele>30.4188</ele>
        <time>2012-08-19T21:08:51Z</time>
      </trkpt>
      <trkpt lat="59.9692453" lon="17.7174596">
        <ele>29.9381</ele>
        <time>2012-08-19T21:09:01Z</time>
      </trkpt>
      <trkpt lat="59.9692296" lon="17.7174568">
        <ele>29.9381</ele>
        <time>2012-08-19T21:09:02Z</time>
      </trkpt>
      <trkpt lat="59.9691322" lon="17.7173974">
        <ele>28.9769</ele>
        <time>2012-08-19T21:09:09Z</time>
      </trkpt>
      <trkpt lat="59.9690239" lon="17.7173532">
        <ele>28.4962</ele>
        <time>2012-08-19T21:09:17Z</time>
      </trkpt>
      <trkpt lat="59.9689406" lon="17.7173413">
        <ele>28.0155</ele>
        <time>2012-08-19T21:09:23Z</time>
      </trkpt>
      <trkpt lat="59.9688274" lon="17.7172972">
        <ele>28.9769</ele>
        <time>2012-08-19T21:09:30Z</time>
      </trkpt>
      <trkpt lat="59.9688028" lon="17.7172581">
        <ele>28.9769</ele>
        <time>2012-08-19T21:09:32Z</time>
      </trkpt>
      <trkpt lat="59.9688034" lon="17.717203">
        <ele>28.4962</ele>
        <time>2012-08-19T21:09:34Z</time>
      </trkpt>
    </trkseg>
  </trk>
</gpx>